sensor_id;sensor_type;location;lat;lon;timestamp;temperature;humidity
15152;DHT22;7676;50.900;6.234;2022-10-16T00:03:11;17.20;99.90
15152;DHT22;7676;50.900;6.234;2022-10-16T00:08:13;17.30;99.90
15152;DHT22;7676;50.900;6.234;2022-10-16T00:13:16;17.20;99.90
15152;DHT22;7676;50.900;6.234;2022-10-16T00:18:19;17.40;99.90
15152;DHT22;7676;50.900;6.234;2022-10-16T00:23:23;17.40;99.90
15152;DHT22;7676;50.900;6.234;2022-10-16T00:28:26;17.40;99.90
15152;DHT22;7676;50.900;6.234;2022-10-16T00:33:29;17.60;99.90
15152;DHT22;7676;50.900;6.234;2022-10-16T00:38:32;17.50;99.90
15152;DHT22;7676;50.900;6.234;2022-10-16T00:43:46;17.30;99.90
15152;DHT22;7676;50.900;6.234;2022-10-16T00:49:14;16.50;99.90
15152;DHT22;7676;50.900;6.234;2022-10-16T00:54:26;17.30;99.90
15152;DHT22;7676;50.900;6.234;2022-10-16T00:59:38;17.10;99.90
15152;DHT22;7676;50.900;6.234;2022-10-16T01:04:51;16.90;99.90
15152;DHT22;7676;50.900;6.234;2022-10-16T01:10:38;15.50;99.90
15152;DHT22;7676;50.900;6.234;2022-10-16T01:15:39;16.80;99.90
15152;DHT22;7676;50.900;6.234;2022-10-16T01:20:53;16.70;99.90
15152;DHT22;7676;50.900;6.234;2022-10-16T01:31:08;16.60;99.90
15152;DHT22;7676;50.900;6.234;2022-10-16T01:36:17;16.70;99.90
15152;DHT22;7676;50.900;6.234;2022-10-16T01:41:26;16.40;99.90
15152;DHT22;7676;50.900;6.234;2022-10-16T01:46:31;16.50;99.90
15152;DHT22;7676;50.900;6.234;2022-10-16T01:51:34;16.40;99.90
15152;DHT22;7676;50.900;6.234;2022-10-16T01:56:39;16.40;99.90
15152;DHT22;7676;50.900;6.234;2022-10-16T02:01:47;16.40;99.90
15152;DHT22;7676;50.900;6.234;2022-10-16T02:06:52;16.40;99.90
15152;DHT22;7676;50.900;6.234;2022-10-16T02:11:56;16.20;99.90
15152;DHT22;7676;50.900;6.234;2022-10-16T02:17:01;16.20;99.90
15152;DHT22;7676;50.900;6.234;2022-10-16T02:22:06;16.20;99.90
15152;DHT22;7676;50.900;6.234;2022-10-16T02:32:20;16.20;99.90
15152;DHT22;7676;50.900;6.234;2022-10-16T02:37:23;16.10;99.90
15152;DHT22;7676;50.900;6.234;2022-10-16T02:42:34;16.10;99.90
15152;DHT22;7676;50.900;6.234;2022-10-16T02:47:37;16.10;99.90
15152;DHT22;7676;50.900;6.234;2022-10-16T02:52:40;16.10;99.90
15152;DHT22;7676;50.900;6.234;2022-10-16T02:57:42;16.00;99.90
15152;DHT22;7676;50.900;6.234;2022-10-16T03:02:45;16.00;99.90
15152;DHT22;7676;50.900;6.234;2022-10-16T03:07:48;15.90;99.90
15152;DHT22;7676;50.900;6.234;2022-10-16T03:12:51;16.10;99.90
15152;DHT22;7676;50.900;6.234;2022-10-16T03:17:53;16.10;99.90
15152;DHT22;7676;50.900;6.234;2022-10-16T03:22:55;16.10;99.90
15152;DHT22;7676;50.900;6.234;2022-10-16T03:27:58;16.10;99.90
15152;DHT22;7676;50.900;6.234;2022-10-16T03:33:00;16.30;99.90
15152;DHT22;7676;50.900;6.234;2022-10-16T03:38:02;16.50;99.90
15152;DHT22;7676;50.900;6.234;2022-10-16T03:43:05;16.50;99.90
15152;DHT22;7676;50.900;6.234;2022-10-16T03:48:07;16.30;99.90
15152;DHT22;7676;50.900;6.234;2022-10-16T03:53:10;16.20;99.90
15152;DHT22;7676;50.900;6.234;2022-10-16T03:58:12;16.30;99.90
15152;DHT22;7676;50.900;6.234;2022-10-16T04:03:15;16.20;99.90
15152;DHT22;7676;50.900;6.234;2022-10-16T04:08:17;16.30;99.90
15152;DHT22;7676;50.900;6.234;2022-10-16T04:13:20;16.30;99.90
15152;DHT22;7676;50.900;6.234;2022-10-16T04:18:22;16.10;99.90
15152;DHT22;7676;50.900;6.234;2022-10-16T04:23:25;16.20;99.90
15152;DHT22;7676;50.900;6.234;2022-10-16T04:28:27;16.20;99.90
15152;DHT22;7676;50.900;6.234;2022-10-16T04:33:30;16.20;99.90
15152;DHT22;7676;50.900;6.234;2022-10-16T04:38:33;16.20;99.90
15152;DHT22;7676;50.900;6.234;2022-10-16T04:43:35;16.10;99.90
15152;DHT22;7676;50.900;6.234;2022-10-16T04:48:37;16.20;99.90
15152;DHT22;7676;50.900;6.234;2022-10-16T04:53:40;16.40;99.90
15152;DHT22;7676;50.900;6.234;2022-10-16T04:58:42;16.30;99.90
15152;DHT22;7676;50.900;6.234;2022-10-16T05:03:45;16.20;99.90
15152;DHT22;7676;50.900;6.234;2022-10-16T05:08:47;16.30;99.90
15152;DHT22;7676;50.900;6.234;2022-10-16T05:13:50;16.30;99.90
15152;DHT22;7676;50.900;6.234;2022-10-16T05:18:57;16.40;99.90
15152;DHT22;7676;50.900;6.234;2022-10-16T05:24:19;16.40;99.90
15152;DHT22;7676;50.900;6.234;2022-10-16T05:29:22;16.50;99.90
15152;DHT22;7676;50.900;6.234;2022-10-16T05:34:25;16.50;99.90
15152;DHT22;7676;50.900;6.234;2022-10-16T05:39:27;16.60;99.90
15152;DHT22;7676;50.900;6.234;2022-10-16T05:44:29;16.60;99.90
15152;DHT22;7676;50.900;6.234;2022-10-16T05:49:32;16.70;99.90
15152;DHT22;7676;50.900;6.234;2022-10-16T05:54:40;16.70;99.90
15152;DHT22;7676;50.900;6.234;2022-10-16T05:59:42;16.60;99.90
15152;DHT22;7676;50.900;6.234;2022-10-16T06:04:45;16.30;99.90
15152;DHT22;7676;50.900;6.234;2022-10-16T06:09:53;16.20;99.90
15152;DHT22;7676;50.900;6.234;2022-10-16T06:14:56;16.10;99.90
15152;DHT22;7676;50.900;6.234;2022-10-16T06:19:58;16.00;99.90
15152;DHT22;7676;50.900;6.234;2022-10-16T06:25:00;15.90;99.90
15152;DHT22;7676;50.900;6.234;2022-10-16T06:30:03;15.80;99.90
15152;DHT22;7676;50.900;6.234;2022-10-16T06:35:06;15.60;99.90
15152;DHT22;7676;50.900;6.234;2022-10-16T06:40:08;15.50;99.90
15152;DHT22;7676;50.900;6.234;2022-10-16T06:45:11;15.50;99.90
15152;DHT22;7676;50.900;6.234;2022-10-16T06:50:13;15.50;99.90
15152;DHT22;7676;50.900;6.234;2022-10-16T06:55:16;15.50;99.90
15152;DHT22;7676;50.900;6.234;2022-10-16T07:00:19;15.50;99.90
15152;DHT22;7676;50.900;6.234;2022-10-16T07:05:21;15.40;99.90
15152;DHT22;7676;50.900;6.234;2022-10-16T07:10:23;15.40;99.90
15152;DHT22;7676;50.900;6.234;2022-10-16T07:15:27;15.60;99.90
15152;DHT22;7676;50.900;6.234;2022-10-16T07:20:29;15.70;99.90
15152;DHT22;7676;50.900;6.234;2022-10-16T07:25:32;15.50;99.90
15152;DHT22;7676;50.900;6.234;2022-10-16T07:30:35;15.50;99.90
15152;DHT22;7676;50.900;6.234;2022-10-16T07:35:48;15.40;99.90
15152;DHT22;7676;50.900;6.234;2022-10-16T07:41:02;15.50;99.90
15152;DHT22;7676;50.900;6.234;2022-10-16T07:46:05;15.60;99.90
15152;DHT22;7676;50.900;6.234;2022-10-16T07:51:09;15.50;99.90
15152;DHT22;7676;50.900;6.234;2022-10-16T07:56:12;15.60;99.90
15152;DHT22;7676;50.900;6.234;2022-10-16T08:01:16;15.70;99.90
15152;DHT22;7676;50.900;6.234;2022-10-16T08:06:20;15.50;99.90
15152;DHT22;7676;50.900;6.234;2022-10-16T08:11:28;15.60;99.90
15152;DHT22;7676;50.900;6.234;2022-10-16T08:16:31;15.50;99.90
15152;DHT22;7676;50.900;6.234;2022-10-16T08:21:33;15.50;99.90
15152;DHT22;7676;50.900;6.234;2022-10-16T08:26:36;15.70;99.90
15152;DHT22;7676;50.900;6.234;2022-10-16T08:31:38;15.70;99.90
15152;DHT22;7676;50.900;6.234;2022-10-16T08:36:40;15.70;99.90
15152;DHT22;7676;50.900;6.234;2022-10-16T08:47:08;15.90;99.90
15152;DHT22;7676;50.900;6.234;2022-10-16T08:52:15;16.00;99.90
15152;DHT22;7676;50.900;6.234;2022-10-16T08:57:20;16.10;99.90
15152;DHT22;7676;50.900;6.234;2022-10-16T09:02:40;16.00;99.90
15152;DHT22;7676;50.900;6.234;2022-10-16T09:18:54;16.60;99.90
15152;DHT22;7676;50.900;6.234;2022-10-16T09:24:04;16.80;99.90
15152;DHT22;7676;50.900;6.234;2022-10-16T09:29:16;16.80;99.90
15152;DHT22;7676;50.900;6.234;2022-10-16T09:39:30;17.00;99.90
15152;DHT22;7676;50.900;6.234;2022-10-16T09:44:50;17.20;99.90
15152;DHT22;7676;50.900;6.234;2022-10-16T09:49:59;17.40;99.90
15152;DHT22;7676;50.900;6.234;2022-10-16T09:55:15;17.40;99.90
15152;DHT22;7676;50.900;6.234;2022-10-16T10:00:19;17.60;99.90
15152;DHT22;7676;50.900;6.234;2022-10-16T10:05:27;17.60;99.90
15152;DHT22;7676;50.900;6.234;2022-10-16T10:10:32;17.70;99.90
15152;DHT22;7676;50.900;6.234;2022-10-16T10:15:41;17.90;99.90
15152;DHT22;7676;50.900;6.234;2022-10-16T10:20:46;18.20;99.90
15152;DHT22;7676;50.900;6.234;2022-10-16T10:26:16;18.20;99.90
15152;DHT22;7676;50.900;6.234;2022-10-16T10:31:43;18.50;99.90
15152;DHT22;7676;50.900;6.234;2022-10-16T10:53:47;19.10;99.90
15152;DHT22;7676;50.900;6.234;2022-10-16T10:59:02;19.10;99.90
15152;DHT22;7676;50.900;6.234;2022-10-16T11:04:29;19.10;99.90
15152;DHT22;7676;50.900;6.234;2022-10-16T11:09:38;19.10;99.90
15152;DHT22;7676;50.900;6.234;2022-10-16T11:20:28;20.50;99.90
15152;DHT22;7676;50.900;6.234;2022-10-16T11:25:33;19.60;99.90
15152;DHT22;7676;50.900;6.234;2022-10-16T11:30:50;19.80;99.90
15152;DHT22;7676;50.900;6.234;2022-10-16T11:41:20;19.80;99.90
15152;DHT22;7676;50.900;6.234;2022-10-16T11:46:26;20.00;99.90
15152;DHT22;7676;50.900;6.234;2022-10-16T11:56:40;20.40;99.90
15152;DHT22;7676;50.900;6.234;2022-10-16T12:01:49;20.30;99.90
15152;DHT22;7676;50.900;6.234;2022-10-16T12:07:08;20.50;99.90
15152;DHT22;7676;50.900;6.234;2022-10-16T12:17:38;21.10;99.90
15152;DHT22;7676;50.900;6.234;2022-10-16T12:23:16;21.20;99.90
15152;DHT22;7676;50.900;6.234;2022-10-16T12:28:27;21.20;99.90
15152;DHT22;7676;50.900;6.234;2022-10-16T12:33:33;21.10;99.90
15152;DHT22;7676;50.900;6.234;2022-10-16T12:38:47;21.20;99.90
15152;DHT22;7676;50.900;6.234;2022-10-16T12:43:50;21.10;99.90
15152;DHT22;7676;50.900;6.234;2022-10-16T12:48:52;21.10;99.90
15152;DHT22;7676;50.900;6.234;2022-10-16T12:59:52;21.50;99.90
15152;DHT22;7676;50.900;6.234;2022-10-16T13:05:14;21.70;99.90
15152;DHT22;7676;50.900;6.234;2022-10-16T13:15:56;21.90;99.90
15152;DHT22;7676;50.900;6.234;2022-10-16T13:32:10;21.60;99.90
15152;DHT22;7676;50.900;6.234;2022-10-16T13:37:32;23.30;99.90
15152;DHT22;7676;50.900;6.234;2022-10-16T13:42:34;21.90;99.90
15152;DHT22;7676;50.900;6.234;2022-10-16T13:47:37;21.90;99.90
15152;DHT22;7676;50.900;6.234;2022-10-16T13:52:39;22.00;99.90
15152;DHT22;7676;50.900;6.234;2022-10-16T13:57:42;22.30;99.90
15152;DHT22;7676;50.900;6.234;2022-10-16T14:02:45;22.00;99.90
15152;DHT22;7676;50.900;6.234;2022-10-16T14:07:54;22.10;99.90
15152;DHT22;7676;50.900;6.234;2022-10-16T14:12:59;21.40;99.90
15152;DHT22;7676;50.900;6.234;2022-10-16T14:18:03;21.30;99.90
15152;DHT22;7676;50.900;6.234;2022-10-16T14:23:28;21.10;99.90
15152;DHT22;7676;50.900;6.234;2022-10-16T14:28:32;21.20;99.90
15152;DHT22;7676;50.900;6.234;2022-10-16T14:33:34;21.60;99.90
15152;DHT22;7676;50.900;6.234;2022-10-16T14:38:39;21.70;99.90
15152;DHT22;7676;50.900;6.234;2022-10-16T14:43:43;21.90;99.90
15152;DHT22;7676;50.900;6.234;2022-10-16T14:49:00;21.90;99.90
15152;DHT22;7676;50.900;6.234;2022-10-16T14:54:04;21.90;99.90
15152;DHT22;7676;50.900;6.234;2022-10-16T14:59:30;21.50;99.90
15152;DHT22;7676;50.900;6.234;2022-10-16T15:04:34;20.60;99.90
15152;DHT22;7676;50.900;6.234;2022-10-16T15:09:36;20.30;99.90
15152;DHT22;7676;50.900;6.234;2022-10-16T15:14:39;19.80;99.90
15152;DHT22;7676;50.900;6.234;2022-10-16T15:19:41;19.50;99.90
15152;DHT22;7676;50.900;6.234;2022-10-16T15:24:43;19.20;99.90
15152;DHT22;7676;50.900;6.234;2022-10-16T15:29:46;19.20;99.90
15152;DHT22;7676;50.900;6.234;2022-10-16T15:34:48;19.30;99.90
15152;DHT22;7676;50.900;6.234;2022-10-16T15:39:51;19.30;99.90
15152;DHT22;7676;50.900;6.234;2022-10-16T15:44:53;19.30;99.90
15152;DHT22;7676;50.900;6.234;2022-10-16T15:49:56;19.30;99.90
15152;DHT22;7676;50.900;6.234;2022-10-16T15:54:59;19.50;99.90
15152;DHT22;7676;50.900;6.234;2022-10-16T16:00:01;19.40;99.90
15152;DHT22;7676;50.900;6.234;2022-10-16T16:05:13;19.50;99.90
15152;DHT22;7676;50.900;6.234;2022-10-16T16:10:15;19.60;99.90
15152;DHT22;7676;50.900;6.234;2022-10-16T16:15:20;19.70;99.90
15152;DHT22;7676;50.900;6.234;2022-10-16T16:20:23;19.70;99.90
15152;DHT22;7676;50.900;6.234;2022-10-16T16:25:25;19.70;99.90
15152;DHT22;7676;50.900;6.234;2022-10-16T16:30:28;19.70;99.90
15152;DHT22;7676;50.900;6.234;2022-10-16T16:35:31;19.70;99.90
15152;DHT22;7676;50.900;6.234;2022-10-16T16:40:33;19.70;99.90
15152;DHT22;7676;50.900;6.234;2022-10-16T16:45:35;19.70;99.90
15152;DHT22;7676;50.900;6.234;2022-10-16T16:50:38;19.70;99.90
15152;DHT22;7676;50.900;6.234;2022-10-16T16:55:40;19.80;99.90
15152;DHT22;7676;50.900;6.234;2022-10-16T17:00:47;19.90;99.90
15152;DHT22;7676;50.900;6.234;2022-10-16T17:06:02;20.00;99.90
15152;DHT22;7676;50.900;6.234;2022-10-16T17:11:06;19.90;99.90
15152;DHT22;7676;50.900;6.234;2022-10-16T17:16:09;19.90;99.90
15152;DHT22;7676;50.900;6.234;2022-10-16T17:21:12;19.90;99.90
15152;DHT22;7676;50.900;6.234;2022-10-16T17:26:16;20.10;99.90
15152;DHT22;7676;50.900;6.234;2022-10-16T17:31:25;20.30;99.90
15152;DHT22;7676;50.900;6.234;2022-10-16T17:36:27;20.10;99.90
15152;DHT22;7676;50.900;6.234;2022-10-16T17:41:32;20.00;99.90
15152;DHT22;7676;50.900;6.234;2022-10-16T17:46:35;19.90;99.90
15152;DHT22;7676;50.900;6.234;2022-10-16T17:51:42;19.90;99.90
15152;DHT22;7676;50.900;6.234;2022-10-16T17:56:45;19.90;99.90
15152;DHT22;7676;50.900;6.234;2022-10-16T18:01:49;19.80;99.90
15152;DHT22;7676;50.900;6.234;2022-10-16T18:06:51;19.80;99.90
15152;DHT22;7676;50.900;6.234;2022-10-16T18:11:54;19.70;99.90
15152;DHT22;7676;50.900;6.234;2022-10-16T18:17:04;19.60;99.90
15152;DHT22;7676;50.900;6.234;2022-10-16T18:22:07;19.50;99.90
15152;DHT22;7676;50.900;6.234;2022-10-16T18:27:09;19.20;99.90
15152;DHT22;7676;50.900;6.234;2022-10-16T18:32:12;19.40;99.90
15152;DHT22;7676;50.900;6.234;2022-10-16T18:37:14;19.50;99.90
15152;DHT22;7676;50.900;6.234;2022-10-16T18:42:17;19.50;99.90
15152;DHT22;7676;50.900;6.234;2022-10-16T18:47:20;19.60;99.90
15152;DHT22;7676;50.900;6.234;2022-10-16T18:52:22;19.80;99.90
15152;DHT22;7676;50.900;6.234;2022-10-16T18:57:29;19.90;99.90
15152;DHT22;7676;50.900;6.234;2022-10-16T19:02:32;19.90;99.90
15152;DHT22;7676;50.900;6.234;2022-10-16T19:07:39;19.70;99.90
15152;DHT22;7676;50.900;6.234;2022-10-16T19:12:44;19.80;99.90
15152;DHT22;7676;50.900;6.234;2022-10-16T19:17:46;19.90;99.90
15152;DHT22;7676;50.900;6.234;2022-10-16T19:22:48;19.80;99.90
15152;DHT22;7676;50.900;6.234;2022-10-16T19:28:00;19.80;99.90
15152;DHT22;7676;50.900;6.234;2022-10-16T19:33:07;19.80;99.90
15152;DHT22;7676;50.900;6.234;2022-10-16T19:38:09;19.70;99.90
15152;DHT22;7676;50.900;6.234;2022-10-16T19:43:12;19.70;99.90
15152;DHT22;7676;50.900;6.234;2022-10-16T19:48:14;19.80;99.90
15152;DHT22;7676;50.900;6.234;2022-10-16T19:53:17;19.80;99.90
15152;DHT22;7676;50.900;6.234;2022-10-16T19:58:20;19.80;99.90
15152;DHT22;7676;50.900;6.234;2022-10-16T20:03:22;19.70;99.90
15152;DHT22;7676;50.900;6.234;2022-10-16T20:08:27;19.70;99.90
15152;DHT22;7676;50.900;6.234;2022-10-16T20:13:30;19.60;99.90
15152;DHT22;7676;50.900;6.234;2022-10-16T20:18:32;19.60;99.90
15152;DHT22;7676;50.900;6.234;2022-10-16T20:23:35;19.50;99.90
15152;DHT22;7676;50.900;6.234;2022-10-16T20:28:39;19.50;99.90
15152;DHT22;7676;50.900;6.234;2022-10-16T20:33:42;19.50;99.90
15152;DHT22;7676;50.900;6.234;2022-10-16T20:38:45;19.30;99.90
15152;DHT22;7676;50.900;6.234;2022-10-16T20:43:49;19.00;99.90
15152;DHT22;7676;50.900;6.234;2022-10-16T20:48:52;18.80;99.90
15152;DHT22;7676;50.900;6.234;2022-10-16T20:53:57;18.80;99.90
15152;DHT22;7676;50.900;6.234;2022-10-16T20:59:00;18.60;99.90
15152;DHT22;7676;50.900;6.234;2022-10-16T21:04:04;18.40;99.90
15152;DHT22;7676;50.900;6.234;2022-10-16T21:09:07;18.20;99.90
15152;DHT22;7676;50.900;6.234;2022-10-16T21:14:10;18.20;99.90
15152;DHT22;7676;50.900;6.234;2022-10-16T21:19:15;18.40;99.90
15152;DHT22;7676;50.900;6.234;2022-10-16T21:24:18;18.40;99.90
15152;DHT22;7676;50.900;6.234;2022-10-16T21:29:21;18.10;99.90
15152;DHT22;7676;50.900;6.234;2022-10-16T21:34:24;18.00;99.90
15152;DHT22;7676;50.900;6.234;2022-10-16T21:39:27;18.10;99.90
15152;DHT22;7676;50.900;6.234;2022-10-16T21:49:32;17.90;99.90
15152;DHT22;7676;50.900;6.234;2022-10-16T21:54:35;17.90;99.90
15152;DHT22;7676;50.900;6.234;2022-10-16T21:59:37;18.00;99.90
15152;DHT22;7676;50.900;6.234;2022-10-16T22:04:39;18.20;99.90
15152;DHT22;7676;50.900;6.234;2022-10-16T22:09:42;18.20;99.90
15152;DHT22;7676;50.900;6.234;2022-10-16T22:14:45;18.00;99.90
15152;DHT22;7676;50.900;6.234;2022-10-16T22:19:47;18.10;99.90
15152;DHT22;7676;50.900;6.234;2022-10-16T22:24:49;17.90;99.90
15152;DHT22;7676;50.900;6.234;2022-10-16T22:29:52;17.90;99.90
15152;DHT22;7676;50.900;6.234;2022-10-16T22:34:54;17.70;99.90
15152;DHT22;7676;50.900;6.234;2022-10-16T22:39:57;17.50;99.90
15152;DHT22;7676;50.900;6.234;2022-10-16T22:45:02;17.70;99.90
15152;DHT22;7676;50.900;6.234;2022-10-16T22:50:05;17.90;99.90
15152;DHT22;7676;50.900;6.234;2022-10-16T22:55:07;18.00;99.90
15152;DHT22;7676;50.900;6.234;2022-10-16T23:00:13;18.00;99.90
15152;DHT22;7676;50.900;6.234;2022-10-16T23:05:16;18.20;99.90
15152;DHT22;7676;50.900;6.234;2022-10-16T23:10:18;18.20;99.90
15152;DHT22;7676;50.900;6.234;2022-10-16T23:15:23;18.00;99.90
15152;DHT22;7676;50.900;6.234;2022-10-16T23:20:25;18.10;99.90
15152;DHT22;7676;50.900;6.234;2022-10-16T23:25:28;18.10;99.90
15152;DHT22;7676;50.900;6.234;2022-10-16T23:30:30;18.10;99.90
15152;DHT22;7676;50.900;6.234;2022-10-16T23:35:33;18.10;99.90
15152;DHT22;7676;50.900;6.234;2022-10-16T23:40:35;18.20;99.90
15152;DHT22;7676;50.900;6.234;2022-10-16T23:45:37;18.30;99.90
15152;DHT22;7676;50.900;6.234;2022-10-16T23:50:40;18.30;99.90
15152;DHT22;7676;50.900;6.234;2022-10-16T23:55:42;18.20;99.90
